sensor_id;sensor_type;location;lat;lon;timestamp;P1;durP1;ratioP1;P2;durP2;ratioP2
5277;SDS011;2662;51.194;6.614;2023-07-20T00:02:25;5.43;;;3.03;;
5277;SDS011;2662;51.194;6.614;2023-07-20T00:04:51;3.90;;;3.10;;
5277;SDS011;2662;51.194;6.614;2023-07-20T00:07:18;4.10;;;2.90;;
5277;SDS011;2662;51.194;6.614;2023-07-20T00:09:45;7.70;;;3.13;;
5277;SDS011;2662;51.194;6.614;2023-07-20T00:12:12;6.30;;;3.13;;
5277;SDS011;2662;51.194;6.614;2023-07-20T00:14:39;4.13;;;3.13;;
5277;SDS011;2662;51.194;6.614;2023-07-20T00:17:07;8.53;;;3.10;;
5277;SDS011;2662;51.194;6.614;2023-07-20T00:19:34;6.07;;;3.20;;
5277;SDS011;2662;51.194;6.614;2023-07-20T00:22:01;4.60;;;3.20;;
5277;SDS011;2662;51.194;6.614;2023-07-20T00:24:29;4.57;;;2.93;;
5277;SDS011;2662;51.194;6.614;2023-07-20T00:26:56;5.10;;;2.80;;
5277;SDS011;2662;51.194;6.614;2023-07-20T00:29:23;3.30;;;3.00;;
5277;SDS011;2662;51.194;6.614;2023-07-20T00:31:50;5.10;;;3.50;;
5277;SDS011;2662;51.194;6.614;2023-07-20T00:34:18;5.53;;;3.10;;
5277;SDS011;2662;51.194;6.614;2023-07-20T00:36:44;5.13;;;3.70;;
5277;SDS011;2662;51.194;6.614;2023-07-20T00:39:11;6.40;;;3.80;;
5277;SDS011;2662;51.194;6.614;2023-07-20T00:41:38;7.57;;;3.30;;
5277;SDS011;2662;51.194;6.614;2023-07-20T00:44:04;7.10;;;3.30;;
5277;SDS011;2662;51.194;6.614;2023-07-20T00:46:31;4.97;;;3.40;;
5277;SDS011;2662;51.194;6.614;2023-07-20T00:48:59;5.63;;;3.40;;
5277;SDS011;2662;51.194;6.614;2023-07-20T00:51:27;11.47;;;4.00;;
5277;SDS011;2662;51.194;6.614;2023-07-20T00:53:54;9.13;;;3.53;;
5277;SDS011;2662;51.194;6.614;2023-07-20T00:56:21;5.60;;;3.37;;
5277;SDS011;2662;51.194;6.614;2023-07-20T00:58:48;3.83;;;3.33;;
5277;SDS011;2662;51.194;6.614;2023-07-20T01:01:15;4.70;;;3.33;;
5277;SDS011;2662;51.194;6.614;2023-07-20T01:03:41;5.70;;;4.03;;
5277;SDS011;2662;51.194;6.614;2023-07-20T01:06:15;6.90;;;3.20;;
5277;SDS011;2662;51.194;6.614;2023-07-20T01:08:51;11.93;;;3.43;;
5277;SDS011;2662;51.194;6.614;2023-07-20T01:11:28;6.80;;;3.10;;
5277;SDS011;2662;51.194;6.614;2023-07-20T01:14:03;6.60;;;3.67;;
5277;SDS011;2662;51.194;6.614;2023-07-20T01:16:32;6.47;;;3.60;;
5277;SDS011;2662;51.194;6.614;2023-07-20T01:18:59;5.17;;;3.67;;
5277;SDS011;2662;51.194;6.614;2023-07-20T01:21:28;6.67;;;4.07;;
5277;SDS011;2662;51.194;6.614;2023-07-20T01:30:25;8.40;;;4.00;;
5277;SDS011;2662;51.194;6.614;2023-07-20T01:33:13;4.50;;;3.23;;
5277;SDS011;2662;51.194;6.614;2023-07-20T01:35:42;7.67;;;3.53;;
5277;SDS011;2662;51.194;6.614;2023-07-20T01:38:11;6.87;;;3.50;;
5277;SDS011;2662;51.194;6.614;2023-07-20T01:40:39;7.63;;;3.63;;
5277;SDS011;2662;51.194;6.614;2023-07-20T01:43:07;5.60;;;3.60;;
5277;SDS011;2662;51.194;6.614;2023-07-20T01:45:34;6.67;;;3.90;;
5277;SDS011;2662;51.194;6.614;2023-07-20T01:48:00;5.67;;;3.93;;
5277;SDS011;2662;51.194;6.614;2023-07-20T01:50:28;7.37;;;4.10;;
5277;SDS011;2662;51.194;6.614;2023-07-20T01:52:55;6.67;;;3.90;;
5277;SDS011;2662;51.194;6.614;2023-07-20T01:55:22;7.57;;;4.03;;
5277;SDS011;2662;51.194;6.614;2023-07-20T01:57:50;5.43;;;3.83;;
5277;SDS011;2662;51.194;6.614;2023-07-20T02:00:17;5.27;;;4.10;;
5277;SDS011;2662;51.194;6.614;2023-07-20T02:02:46;5.87;;;3.90;;
5277;SDS011;2662;51.194;6.614;2023-07-20T02:05:13;7.67;;;3.60;;
5277;SDS011;2662;51.194;6.614;2023-07-20T02:07:41;6.50;;;4.03;;
5277;SDS011;2662;51.194;6.614;2023-07-20T02:10:08;6.60;;;4.60;;
5277;SDS011;2662;51.194;6.614;2023-07-20T02:12:35;6.83;;;4.43;;
5277;SDS011;2662;51.194;6.614;2023-07-20T02:15:02;6.07;;;3.77;;
5277;SDS011;2662;51.194;6.614;2023-07-20T02:17:29;6.87;;;3.90;;
5277;SDS011;2662;51.194;6.614;2023-07-20T02:19:56;4.53;;;3.77;;
5277;SDS011;2662;51.194;6.614;2023-07-20T02:22:23;5.40;;;3.77;;
5277;SDS011;2662;51.194;6.614;2023-07-20T02:24:51;3.97;;;3.57;;
5277;SDS011;2662;51.194;6.614;2023-07-20T02:27:18;9.83;;;4.10;;
5277;SDS011;2662;51.194;6.614;2023-07-20T02:29:45;6.30;;;3.93;;
5277;SDS011;2662;51.194;6.614;2023-07-20T02:32:11;7.73;;;4.03;;
5277;SDS011;2662;51.194;6.614;2023-07-20T02:34:38;8.63;;;3.50;;
5277;SDS011;2662;51.194;6.614;2023-07-20T02:37:05;11.03;;;3.77;;
5277;SDS011;2662;51.194;6.614;2023-07-20T02:39:32;6.40;;;3.93;;
5277;SDS011;2662;51.194;6.614;2023-07-20T02:42:00;11.73;;;4.63;;
5277;SDS011;2662;51.194;6.614;2023-07-20T02:44:27;5.10;;;3.80;;
5277;SDS011;2662;51.194;6.614;2023-07-20T02:46:53;7.17;;;4.10;;
5277;SDS011;2662;51.194;6.614;2023-07-20T02:49:20;7.30;;;3.93;;
5277;SDS011;2662;51.194;6.614;2023-07-20T02:51:47;10.40;;;4.60;;
5277;SDS011;2662;51.194;6.614;2023-07-20T02:54:14;5.87;;;3.70;;
5277;SDS011;2662;51.194;6.614;2023-07-20T02:56:41;5.83;;;3.63;;
5277;SDS011;2662;51.194;6.614;2023-07-20T02:59:09;4.97;;;3.90;;
5277;SDS011;2662;51.194;6.614;2023-07-20T03:01:36;4.90;;;4.00;;
5277;SDS011;2662;51.194;6.614;2023-07-20T03:04:03;6.17;;;3.40;;
5277;SDS011;2662;51.194;6.614;2023-07-20T03:06:30;9.50;;;3.70;;
5277;SDS011;2662;51.194;6.614;2023-07-20T03:08:57;11.90;;;4.50;;
5277;SDS011;2662;51.194;6.614;2023-07-20T03:11:24;10.20;;;4.10;;
5277;SDS011;2662;51.194;6.614;2023-07-20T03:13:50;6.37;;;4.47;;
5277;SDS011;2662;51.194;6.614;2023-07-20T03:16:19;6.63;;;4.23;;
5277;SDS011;2662;51.194;6.614;2023-07-20T03:18:46;11.57;;;4.60;;
5277;SDS011;2662;51.194;6.614;2023-07-20T03:21:13;4.33;;;3.80;;
5277;SDS011;2662;51.194;6.614;2023-07-20T03:23:40;9.00;;;4.57;;
5277;SDS011;2662;51.194;6.614;2023-07-20T03:26:07;6.53;;;4.23;;
5277;SDS011;2662;51.194;6.614;2023-07-20T03:28:34;6.80;;;4.10;;
5277;SDS011;2662;51.194;6.614;2023-07-20T03:31:01;9.80;;;4.80;;
5277;SDS011;2662;51.194;6.614;2023-07-20T03:33:29;9.83;;;4.40;;
5277;SDS011;2662;51.194;6.614;2023-07-20T03:35:57;8.50;;;4.30;;
5277;SDS011;2662;51.194;6.614;2023-07-20T03:38:24;13.10;;;4.67;;
5277;SDS011;2662;51.194;6.614;2023-07-20T03:40:52;5.17;;;4.20;;
5277;SDS011;2662;51.194;6.614;2023-07-20T03:43:19;7.10;;;4.80;;
5277;SDS011;2662;51.194;6.614;2023-07-20T03:45:46;8.83;;;4.00;;
5277;SDS011;2662;51.194;6.614;2023-07-20T03:48:13;7.20;;;4.67;;
5277;SDS011;2662;51.194;6.614;2023-07-20T03:50:43;8.47;;;4.63;;
5277;SDS011;2662;51.194;6.614;2023-07-20T03:53:10;11.53;;;4.07;;
5277;SDS011;2662;51.194;6.614;2023-07-20T03:55:37;6.10;;;3.50;;
5277;SDS011;2662;51.194;6.614;2023-07-20T03:58:05;7.10;;;4.27;;
5277;SDS011;2662;51.194;6.614;2023-07-20T04:00:32;11.30;;;4.13;;
5277;SDS011;2662;51.194;6.614;2023-07-20T04:02:59;8.67;;;4.47;;
5277;SDS011;2662;51.194;6.614;2023-07-20T04:05:26;11.33;;;4.23;;
5277;SDS011;2662;51.194;6.614;2023-07-20T04:07:54;9.13;;;5.00;;
5277;SDS011;2662;51.194;6.614;2023-07-20T04:10:21;8.53;;;4.13;;
5277;SDS011;2662;51.194;6.614;2023-07-20T04:12:47;9.20;;;4.83;;
5277;SDS011;2662;51.194;6.614;2023-07-20T04:15:14;8.07;;;4.13;;
5277;SDS011;2662;51.194;6.614;2023-07-20T04:17:41;6.37;;;4.90;;
5277;SDS011;2662;51.194;6.614;2023-07-20T04:20:08;9.20;;;4.87;;
5277;SDS011;2662;51.194;6.614;2023-07-20T04:22:35;5.90;;;3.73;;
5277;SDS011;2662;51.194;6.614;2023-07-20T04:25:03;9.83;;;4.80;;
5277;SDS011;2662;51.194;6.614;2023-07-20T04:27:31;5.83;;;4.43;;
5277;SDS011;2662;51.194;6.614;2023-07-20T04:29:58;8.37;;;4.20;;
5277;SDS011;2662;51.194;6.614;2023-07-20T04:32:25;7.20;;;4.30;;
5277;SDS011;2662;51.194;6.614;2023-07-20T04:34:52;8.57;;;4.13;;
5277;SDS011;2662;51.194;6.614;2023-07-20T04:37:18;10.97;;;4.33;;
5277;SDS011;2662;51.194;6.614;2023-07-20T04:39:45;9.60;;;4.20;;
5277;SDS011;2662;51.194;6.614;2023-07-20T04:42:13;9.90;;;4.20;;
5277;SDS011;2662;51.194;6.614;2023-07-20T04:44:40;6.17;;;4.00;;
5277;SDS011;2662;51.194;6.614;2023-07-20T04:47:07;8.30;;;4.60;;
5277;SDS011;2662;51.194;6.614;2023-07-20T04:49:34;13.93;;;4.60;;
5277;SDS011;2662;51.194;6.614;2023-07-20T04:52:01;9.83;;;4.00;;
5277;SDS011;2662;51.194;6.614;2023-07-20T04:54:28;7.93;;;4.37;;
5277;SDS011;2662;51.194;6.614;2023-07-20T04:56:55;8.47;;;4.33;;
5277;SDS011;2662;51.194;6.614;2023-07-20T04:59:23;8.87;;;4.83;;
5277;SDS011;2662;51.194;6.614;2023-07-20T05:01:50;15.50;;;4.83;;
5277;SDS011;2662;51.194;6.614;2023-07-20T05:04:17;9.97;;;4.73;;
5277;SDS011;2662;51.194;6.614;2023-07-20T05:06:44;8.97;;;5.37;;
5277;SDS011;2662;51.194;6.614;2023-07-20T05:09:11;7.00;;;5.03;;
5277;SDS011;2662;51.194;6.614;2023-07-20T05:11:38;10.10;;;5.80;;
5277;SDS011;2662;51.194;6.614;2023-07-20T05:14:04;14.17;;;6.90;;
5277;SDS011;2662;51.194;6.614;2023-07-20T05:16:32;10.50;;;6.20;;
5277;SDS011;2662;51.194;6.614;2023-07-20T05:18:59;11.63;;;7.10;;
5277;SDS011;2662;51.194;6.614;2023-07-20T05:21:26;13.57;;;7.33;;
5277;SDS011;2662;51.194;6.614;2023-07-20T05:23:52;12.73;;;7.87;;
5277;SDS011;2662;51.194;6.614;2023-07-20T05:26:19;13.47;;;7.70;;
5277;SDS011;2662;51.194;6.614;2023-07-20T05:28:46;19.37;;;8.10;;
5277;SDS011;2662;51.194;6.614;2023-07-20T05:31:12;15.00;;;8.90;;
5277;SDS011;2662;51.194;6.614;2023-07-20T05:33:41;21.67;;;9.53;;
5277;SDS011;2662;51.194;6.614;2023-07-20T05:36:07;12.90;;;9.00;;
5277;SDS011;2662;51.194;6.614;2023-07-20T05:38:34;13.90;;;10.10;;
5277;SDS011;2662;51.194;6.614;2023-07-20T05:41:01;13.50;;;9.40;;
5277;SDS011;2662;51.194;6.614;2023-07-20T05:43:28;17.80;;;10.50;;
5277;SDS011;2662;51.194;6.614;2023-07-20T05:45:56;14.40;;;9.23;;
5277;SDS011;2662;51.194;6.614;2023-07-20T05:48:23;15.47;;;8.90;;
5277;SDS011;2662;51.194;6.614;2023-07-20T05:50:51;11.53;;;8.43;;
5277;SDS011;2662;51.194;6.614;2023-07-20T05:53:18;18.23;;;8.40;;
5277;SDS011;2662;51.194;6.614;2023-07-20T05:55:51;13.03;;;8.90;;
5277;SDS011;2662;51.194;6.614;2023-07-20T05:58:18;12.10;;;8.17;;
5277;SDS011;2662;51.194;6.614;2023-07-20T06:00:47;11.60;;;8.57;;
5277;SDS011;2662;51.194;6.614;2023-07-20T06:03:14;13.17;;;8.23;;
5277;SDS011;2662;51.194;6.614;2023-07-20T06:05:41;14.67;;;8.80;;
5277;SDS011;2662;51.194;6.614;2023-07-20T06:08:09;16.37;;;8.50;;
5277;SDS011;2662;51.194;6.614;2023-07-20T06:10:36;11.53;;;7.93;;
5277;SDS011;2662;51.194;6.614;2023-07-20T06:13:02;12.33;;;8.33;;
5277;SDS011;2662;51.194;6.614;2023-07-20T06:15:31;12.20;;;8.17;;
5277;SDS011;2662;51.194;6.614;2023-07-20T06:18:00;12.17;;;8.50;;
5277;SDS011;2662;51.194;6.614;2023-07-20T06:20:27;10.83;;;7.43;;
5277;SDS011;2662;51.194;6.614;2023-07-20T06:22:53;8.00;;;6.57;;
5277;SDS011;2662;51.194;6.614;2023-07-20T06:25:21;9.53;;;7.03;;
5277;SDS011;2662;51.194;6.614;2023-07-20T06:27:48;8.17;;;6.17;;
5277;SDS011;2662;51.194;6.614;2023-07-20T06:30:16;9.70;;;6.33;;
5277;SDS011;2662;51.194;6.614;2023-07-20T06:32:43;8.10;;;5.37;;
5277;SDS011;2662;51.194;6.614;2023-07-20T06:35:10;8.77;;;5.67;;
5277;SDS011;2662;51.194;6.614;2023-07-20T06:37:36;7.03;;;5.20;;
5277;SDS011;2662;51.194;6.614;2023-07-20T06:40:03;5.60;;;4.50;;
5277;SDS011;2662;51.194;6.614;2023-07-20T06:42:32;5.17;;;4.37;;
5277;SDS011;2662;51.194;6.614;2023-07-20T06:44:59;3.93;;;2.80;;
5277;SDS011;2662;51.194;6.614;2023-07-20T06:47:27;4.07;;;2.90;;
5277;SDS011;2662;51.194;6.614;2023-07-20T06:49:53;3.97;;;3.57;;
5277;SDS011;2662;51.194;6.614;2023-07-20T06:52:20;3.70;;;3.40;;
5277;SDS011;2662;51.194;6.614;2023-07-20T06:54:47;3.50;;;2.97;;
5277;SDS011;2662;51.194;6.614;2023-07-20T06:57:13;4.20;;;3.80;;
5277;SDS011;2662;51.194;6.614;2023-07-20T06:59:41;4.27;;;3.87;;
5277;SDS011;2662;51.194;6.614;2023-07-20T07:02:08;5.83;;;3.80;;
5277;SDS011;2662;51.194;6.614;2023-07-20T07:04:35;5.50;;;3.70;;
5277;SDS011;2662;51.194;6.614;2023-07-20T07:07:02;8.23;;;3.73;;
5277;SDS011;2662;51.194;6.614;2023-07-20T07:09:29;5.63;;;4.37;;
5277;SDS011;2662;51.194;6.614;2023-07-20T07:11:55;9.43;;;4.60;;
5277;SDS011;2662;51.194;6.614;2023-07-20T07:14:22;6.33;;;4.27;;
5277;SDS011;2662;51.194;6.614;2023-07-20T07:16:50;6.90;;;3.97;;
5277;SDS011;2662;51.194;6.614;2023-07-20T07:19:17;5.17;;;4.20;;
5277;SDS011;2662;51.194;6.614;2023-07-20T07:21:44;2.90;;;2.70;;
5277;SDS011;2662;51.194;6.614;2023-07-20T07:24:11;4.50;;;2.97;;
5277;SDS011;2662;51.194;6.614;2023-07-20T07:26:37;10.03;;;3.10;;
5277;SDS011;2662;51.194;6.614;2023-07-20T07:29:05;2.93;;;2.67;;
5277;SDS011;2662;51.194;6.614;2023-07-20T07:31:33;3.43;;;3.13;;
5277;SDS011;2662;51.194;6.614;2023-07-20T07:34:02;2.97;;;2.20;;
5277;SDS011;2662;51.194;6.614;2023-07-20T07:36:29;3.57;;;1.73;;
5277;SDS011;2662;51.194;6.614;2023-07-20T07:38:56;1.60;;;1.50;;
5277;SDS011;2662;51.194;6.614;2023-07-20T07:41:23;2.37;;;2.27;;
5277;SDS011;2662;51.194;6.614;2023-07-20T07:43:50;2.00;;;1.83;;
5277;SDS011;2662;51.194;6.614;2023-07-20T07:46:16;3.10;;;1.97;;
5277;SDS011;2662;51.194;6.614;2023-07-20T07:48:43;3.53;;;2.40;;
5277;SDS011;2662;51.194;6.614;2023-07-20T07:51:11;3.50;;;2.10;;
5277;SDS011;2662;51.194;6.614;2023-07-20T07:53:38;3.70;;;1.80;;
5277;SDS011;2662;51.194;6.614;2023-07-20T07:56:06;2.50;;;2.30;;
5277;SDS011;2662;51.194;6.614;2023-07-20T07:58:33;2.00;;;1.90;;
5277;SDS011;2662;51.194;6.614;2023-07-20T08:01:00;2.07;;;1.97;;
5277;SDS011;2662;51.194;6.614;2023-07-20T08:03:27;1.70;;;1.60;;
5277;SDS011;2662;51.194;6.614;2023-07-20T08:05:54;2.07;;;1.97;;
5277;SDS011;2662;51.194;6.614;2023-07-20T08:08:22;2.20;;;2.00;;
5277;SDS011;2662;51.194;6.614;2023-07-20T08:10:49;2.70;;;1.80;;
5277;SDS011;2662;51.194;6.614;2023-07-20T08:13:19;2.00;;;1.90;;
5277;SDS011;2662;51.194;6.614;2023-07-20T08:15:46;1.40;;;1.40;;
5277;SDS011;2662;51.194;6.614;2023-07-20T08:18:15;1.60;;;1.50;;
5277;SDS011;2662;51.194;6.614;2023-07-20T08:20:43;1.53;;;1.43;;
5277;SDS011;2662;51.194;6.614;2023-07-20T08:23:10;3.70;;;1.67;;
5277;SDS011;2662;51.194;6.614;2023-07-20T08:25:38;1.70;;;1.60;;
5277;SDS011;2662;51.194;6.614;2023-07-20T08:28:08;1.90;;;1.40;;
5277;SDS011;2662;51.194;6.614;2023-07-20T08:30:45;1.90;;;1.50;;
5277;SDS011;2662;51.194;6.614;2023-07-20T08:33:13;1.30;;;1.20;;
5277;SDS011;2662;51.194;6.614;2023-07-20T08:35:41;1.20;;;0.93;;
5277;SDS011;2662;51.194;6.614;2023-07-20T08:38:08;1.10;;;1.00;;
5277;SDS011;2662;51.194;6.614;2023-07-20T08:40:39;2.80;;;0.83;;
5277;SDS011;2662;51.194;6.614;2023-07-20T08:43:07;1.53;;;0.67;;
5277;SDS011;2662;51.194;6.614;2023-07-20T08:45:34;2.60;;;0.80;;
5277;SDS011;2662;51.194;6.614;2023-07-20T08:48:04;1.23;;;0.83;;
5277;SDS011;2662;51.194;6.614;2023-07-20T08:50:32;1.80;;;0.80;;
5277;SDS011;2662;51.194;6.614;2023-07-20T08:53:00;2.30;;;1.40;;
5277;SDS011;2662;51.194;6.614;2023-07-20T08:55:28;1.27;;;0.80;;
5277;SDS011;2662;51.194;6.614;2023-07-20T08:57:57;0.73;;;0.73;;
5277;SDS011;2662;51.194;6.614;2023-07-20T09:00:25;1.37;;;0.80;;
5277;SDS011;2662;51.194;6.614;2023-07-20T09:02:53;1.57;;;0.80;;
5277;SDS011;2662;51.194;6.614;2023-07-20T09:05:21;1.27;;;0.97;;
5277;SDS011;2662;51.194;6.614;2023-07-20T09:07:49;0.50;;;0.50;;
5277;SDS011;2662;51.194;6.614;2023-07-20T09:10:17;0.60;;;0.60;;
5277;SDS011;2662;51.194;6.614;2023-07-20T09:12:43;0.60;;;0.60;;
5277;SDS011;2662;51.194;6.614;2023-07-20T09:15:12;0.63;;;0.60;;
5277;SDS011;2662;51.194;6.614;2023-07-20T09:17:38;1.20;;;0.80;;
5277;SDS011;2662;51.194;6.614;2023-07-20T09:20:06;0.80;;;0.80;;
5277;SDS011;2662;51.194;6.614;2023-07-20T09:22:35;0.90;;;0.90;;
5277;SDS011;2662;51.194;6.614;2023-07-20T09:25:05;0.60;;;0.60;;
5277;SDS011;2662;51.194;6.614;2023-07-20T09:27:35;1.07;;;0.70;;
5277;SDS011;2662;51.194;6.614;2023-07-20T09:30:03;0.53;;;0.53;;
5277;SDS011;2662;51.194;6.614;2023-07-20T09:32:35;0.97;;;0.80;;
5277;SDS011;2662;51.194;6.614;2023-07-20T09:35:04;0.97;;;0.80;;
5277;SDS011;2662;51.194;6.614;2023-07-20T09:37:32;3.70;;;0.90;;
5277;SDS011;2662;51.194;6.614;2023-07-20T09:39:59;1.00;;;0.70;;
5277;SDS011;2662;51.194;6.614;2023-07-20T09:42:26;0.87;;;0.73;;
5277;SDS011;2662;51.194;6.614;2023-07-20T09:44:53;5.03;;;0.80;;
5277;SDS011;2662;51.194;6.614;2023-07-20T09:47:23;0.70;;;0.70;;
5277;SDS011;2662;51.194;6.614;2023-07-20T09:49:57;0.70;;;0.70;;
5277;SDS011;2662;51.194;6.614;2023-07-20T09:52:25;0.70;;;0.70;;
5277;SDS011;2662;51.194;6.614;2023-07-20T09:54:52;0.97;;;0.63;;
5277;SDS011;2662;51.194;6.614;2023-07-20T09:57:21;1.73;;;0.70;;
5277;SDS011;2662;51.194;6.614;2023-07-20T09:59:47;2.60;;;0.83;;
5277;SDS011;2662;51.194;6.614;2023-07-20T10:02:17;0.73;;;0.60;;
5277;SDS011;2662;51.194;6.614;2023-07-20T10:04:48;0.70;;;0.70;;
5277;SDS011;2662;51.194;6.614;2023-07-20T10:07:19;0.60;;;0.60;;
5277;SDS011;2662;51.194;6.614;2023-07-20T10:09:50;0.70;;;0.60;;
5277;SDS011;2662;51.194;6.614;2023-07-20T10:12:19;0.80;;;0.63;;
5277;SDS011;2662;51.194;6.614;2023-07-20T10:14:59;0.67;;;0.63;;
5277;SDS011;2662;51.194;6.614;2023-07-20T10:17:36;2.50;;;0.67;;
5277;SDS011;2662;51.194;6.614;2023-07-20T10:20:06;0.80;;;0.70;;
5277;SDS011;2662;51.194;6.614;2023-07-20T10:22:36;0.93;;;0.73;;
5277;SDS011;2662;51.194;6.614;2023-07-20T10:25:04;0.87;;;0.87;;
5277;SDS011;2662;51.194;6.614;2023-07-20T10:27:33;3.17;;;0.87;;
5277;SDS011;2662;51.194;6.614;2023-07-20T10:30:00;0.90;;;0.70;;
5277;SDS011;2662;51.194;6.614;2023-07-20T10:32:28;0.73;;;0.70;;
5277;SDS011;2662;51.194;6.614;2023-07-20T10:34:56;1.47;;;1.00;;
5277;SDS011;2662;51.194;6.614;2023-07-20T10:40:26;0.70;;;0.70;;
5277;SDS011;2662;51.194;6.614;2023-07-20T10:42:58;0.87;;;0.80;;
5277;SDS011;2662;51.194;6.614;2023-07-20T10:48:17;0.63;;;0.63;;
5277;SDS011;2662;51.194;6.614;2023-07-20T10:50:46;1.47;;;0.80;;
5277;SDS011;2662;51.194;6.614;2023-07-20T10:53:29;2.20;;;0.70;;
5277;SDS011;2662;51.194;6.614;2023-07-20T10:56:05;1.33;;;0.77;;
5277;SDS011;2662;51.194;6.614;2023-07-20T10:58:33;0.90;;;0.80;;
5277;SDS011;2662;51.194;6.614;2023-07-20T11:01:01;0.90;;;0.90;;
5277;SDS011;2662;51.194;6.614;2023-07-20T11:03:29;0.90;;;0.73;;
5277;SDS011;2662;51.194;6.614;2023-07-20T11:05:57;4.53;;;0.80;;
5277;SDS011;2662;51.194;6.614;2023-07-20T11:08:41;5.13;;;0.90;;
5277;SDS011;2662;51.194;6.614;2023-07-20T11:11:21;5.83;;;0.77;;
5277;SDS011;2662;51.194;6.614;2023-07-20T11:13:54;2.00;;;0.70;;
5277;SDS011;2662;51.194;6.614;2023-07-20T11:16:32;3.07;;;0.70;;
5277;SDS011;2662;51.194;6.614;2023-07-20T11:19:15;0.97;;;0.87;;
5277;SDS011;2662;51.194;6.614;2023-07-20T11:21:44;1.27;;;0.77;;
5277;SDS011;2662;51.194;6.614;2023-07-20T11:24:13;2.60;;;1.20;;
5277;SDS011;2662;51.194;6.614;2023-07-20T11:26:43;1.67;;;1.10;;
5277;SDS011;2662;51.194;6.614;2023-07-20T11:29:11;0.93;;;0.70;;
5277;SDS011;2662;51.194;6.614;2023-07-20T11:31:38;1.53;;;0.97;;
5277;SDS011;2662;51.194;6.614;2023-07-20T11:34:07;4.33;;;1.03;;
5277;SDS011;2662;51.194;6.614;2023-07-20T11:36:34;0.87;;;0.87;;
5277;SDS011;2662;51.194;6.614;2023-07-20T11:39:01;0.83;;;0.83;;
5277;SDS011;2662;51.194;6.614;2023-07-20T11:41:31;0.80;;;0.80;;
5277;SDS011;2662;51.194;6.614;2023-07-20T11:43:58;0.80;;;0.80;;
5277;SDS011;2662;51.194;6.614;2023-07-20T11:46:25;2.50;;;1.10;;
5277;SDS011;2662;51.194;6.614;2023-07-20T11:48:57;1.27;;;0.80;;
5277;SDS011;2662;51.194;6.614;2023-07-20T11:51:25;2.70;;;0.83;;
5277;SDS011;2662;51.194;6.614;2023-07-20T11:53:53;1.37;;;0.90;;
5277;SDS011;2662;51.194;6.614;2023-07-20T11:56:20;0.80;;;0.80;;
5277;SDS011;2662;51.194;6.614;2023-07-20T11:58:50;1.00;;;0.80;;
5277;SDS011;2662;51.194;6.614;2023-07-20T12:01:17;1.20;;;0.80;;
5277;SDS011;2662;51.194;6.614;2023-07-20T12:03:45;1.60;;;0.90;;
5277;SDS011;2662;51.194;6.614;2023-07-20T12:06:13;1.67;;;1.20;;
5277;SDS011;2662;51.194;6.614;2023-07-20T12:08:41;1.00;;;0.90;;
5277;SDS011;2662;51.194;6.614;2023-07-20T12:11:09;1.90;;;1.07;;
5277;SDS011;2662;51.194;6.614;2023-07-20T12:13:37;6.93;;;0.90;;
5277;SDS011;2662;51.194;6.614;2023-07-20T12:16:11;0.93;;;0.67;;
5277;SDS011;2662;51.194;6.614;2023-07-20T12:18:39;2.53;;;0.87;;
5277;SDS011;2662;51.194;6.614;2023-07-20T12:21:06;1.53;;;0.97;;
5277;SDS011;2662;51.194;6.614;2023-07-20T12:23:37;1.30;;;0.80;;
5277;SDS011;2662;51.194;6.614;2023-07-20T12:26:06;0.70;;;0.70;;
5277;SDS011;2662;51.194;6.614;2023-07-20T12:28:35;1.00;;;0.70;;
5277;SDS011;2662;51.194;6.614;2023-07-20T12:31:04;1.93;;;1.07;;
5277;SDS011;2662;51.194;6.614;2023-07-20T12:33:32;0.93;;;0.90;;
5277;SDS011;2662;51.194;6.614;2023-07-20T12:35:59;1.00;;;0.80;;
5277;SDS011;2662;51.194;6.614;2023-07-20T12:38:26;0.80;;;0.80;;
5277;SDS011;2662;51.194;6.614;2023-07-20T12:40:53;0.80;;;0.80;;
5277;SDS011;2662;51.194;6.614;2023-07-20T12:43:21;3.30;;;1.23;;
5277;SDS011;2662;51.194;6.614;2023-07-20T12:45:47;3.70;;;0.70;;
5277;SDS011;2662;51.194;6.614;2023-07-20T12:48:14;2.27;;;0.77;;
5277;SDS011;2662;51.194;6.614;2023-07-20T12:50:42;0.90;;;0.80;;
5277;SDS011;2662;51.194;6.614;2023-07-20T12:53:09;2.60;;;0.90;;
5277;SDS011;2662;51.194;6.614;2023-07-20T12:55:37;1.17;;;0.80;;
5277;SDS011;2662;51.194;6.614;2023-07-20T12:58:04;0.90;;;0.80;;
5277;SDS011;2662;51.194;6.614;2023-07-20T13:00:31;0.90;;;0.80;;
5277;SDS011;2662;51.194;6.614;2023-07-20T13:02:57;0.80;;;0.80;;
5277;SDS011;2662;51.194;6.614;2023-07-20T13:05:24;0.70;;;0.60;;
5277;SDS011;2662;51.194;6.614;2023-07-20T13:07:52;3.00;;;0.93;;
5277;SDS011;2662;51.194;6.614;2023-07-20T13:10:19;0.90;;;0.90;;
5277;SDS011;2662;51.194;6.614;2023-07-20T13:12:46;1.07;;;0.80;;
5277;SDS011;2662;51.194;6.614;2023-07-20T13:15:12;1.20;;;0.90;;
5277;SDS011;2662;51.194;6.614;2023-07-20T13:17:39;0.80;;;0.80;;
5277;SDS011;2662;51.194;6.614;2023-07-20T13:20:06;0.90;;;0.80;;
5277;SDS011;2662;51.194;6.614;2023-07-20T13:22:36;0.97;;;0.87;;
5277;SDS011;2662;51.194;6.614;2023-07-20T13:25:04;3.10;;;1.10;;
5277;SDS011;2662;51.194;6.614;2023-07-20T13:27:32;0.80;;;0.80;;
5277;SDS011;2662;51.194;6.614;2023-07-20T13:29:59;1.00;;;0.80;;
5277;SDS011;2662;51.194;6.614;2023-07-20T13:32:26;1.90;;;1.00;;
5277;SDS011;2662;51.194;6.614;2023-07-20T13:34:53;2.63;;;0.80;;
5277;SDS011;2662;51.194;6.614;2023-07-20T13:37:20;5.17;;;1.03;;
5277;SDS011;2662;51.194;6.614;2023-07-20T13:39:47;1.13;;;0.90;;
5277;SDS011;2662;51.194;6.614;2023-07-20T13:42:15;1.43;;;0.83;;
5277;SDS011;2662;51.194;6.614;2023-07-20T13:44:42;0.80;;;0.80;;
5277;SDS011;2662;51.194;6.614;2023-07-20T13:47:08;2.17;;;0.83;;
5277;SDS011;2662;51.194;6.614;2023-07-20T13:49:35;1.23;;;0.70;;
5277;SDS011;2662;51.194;6.614;2023-07-20T13:52:03;0.90;;;0.80;;
5277;SDS011;2662;51.194;6.614;2023-07-20T13:54:30;2.63;;;0.90;;
5277;SDS011;2662;51.194;6.614;2023-07-20T13:56:57;1.07;;;0.90;;
5277;SDS011;2662;51.194;6.614;2023-07-20T13:59:25;1.00;;;0.83;;
5277;SDS011;2662;51.194;6.614;2023-07-20T14:01:51;2.80;;;1.00;;
5277;SDS011;2662;51.194;6.614;2023-07-20T14:04:18;4.83;;;1.17;;
5277;SDS011;2662;51.194;6.614;2023-07-20T14:06:45;1.07;;;1.00;;
5277;SDS011;2662;51.194;6.614;2023-07-20T14:09:12;1.10;;;1.00;;
5277;SDS011;2662;51.194;6.614;2023-07-20T14:11:39;1.00;;;0.90;;
5277;SDS011;2662;51.194;6.614;2023-07-20T14:14:06;1.27;;;0.80;;
5277;SDS011;2662;51.194;6.614;2023-07-20T14:16:34;1.10;;;1.00;;
5277;SDS011;2662;51.194;6.614;2023-07-20T14:19:01;2.07;;;0.90;;
5277;SDS011;2662;51.194;6.614;2023-07-20T14:21:29;2.67;;;1.03;;
5277;SDS011;2662;51.194;6.614;2023-07-20T14:23:56;0.70;;;0.70;;
5277;SDS011;2662;51.194;6.614;2023-07-20T14:26:23;4.60;;;1.27;;
5277;SDS011;2662;51.194;6.614;2023-07-20T14:28:50;2.40;;;0.90;;
5277;SDS011;2662;51.194;6.614;2023-07-20T14:31:17;3.27;;;1.00;;
5277;SDS011;2662;51.194;6.614;2023-07-20T14:33:46;1.80;;;0.90;;
5277;SDS011;2662;51.194;6.614;2023-07-20T14:36:12;1.27;;;1.00;;
5277;SDS011;2662;51.194;6.614;2023-07-20T14:38:39;1.23;;;0.90;;
5277;SDS011;2662;51.194;6.614;2023-07-20T14:41:06;2.30;;;0.90;;
5277;SDS011;2662;51.194;6.614;2023-07-20T14:43:33;1.33;;;0.83;;
5277;SDS011;2662;51.194;6.614;2023-07-20T14:46:00;0.87;;;0.87;;
5277;SDS011;2662;51.194;6.614;2023-07-20T14:48:27;4.40;;;1.20;;
5277;SDS011;2662;51.194;6.614;2023-07-20T14:50:55;1.10;;;1.00;;
5277;SDS011;2662;51.194;6.614;2023-07-20T14:53:21;7.33;;;1.00;;
5277;SDS011;2662;51.194;6.614;2023-07-20T14:55:48;0.80;;;0.80;;
5277;SDS011;2662;51.194;6.614;2023-07-20T14:58:15;1.30;;;1.20;;
5277;SDS011;2662;51.194;6.614;2023-07-20T15:00:42;1.17;;;1.00;;
5277;SDS011;2662;51.194;6.614;2023-07-20T15:03:08;1.40;;;1.00;;
5277;SDS011;2662;51.194;6.614;2023-07-20T15:05:35;0.80;;;0.80;;
5277;SDS011;2662;51.194;6.614;2023-07-20T15:08:04;2.73;;;1.00;;
5277;SDS011;2662;51.194;6.614;2023-07-20T15:10:33;2.00;;;0.90;;
5277;SDS011;2662;51.194;6.614;2023-07-20T15:13:00;3.73;;;1.03;;
5277;SDS011;2662;51.194;6.614;2023-07-20T15:15:27;1.00;;;0.90;;
5277;SDS011;2662;51.194;6.614;2023-07-20T15:17:54;1.63;;;0.80;;
5277;SDS011;2662;51.194;6.614;2023-07-20T15:20:21;2.03;;;1.10;;
5277;SDS011;2662;51.194;6.614;2023-07-20T15:22:47;4.10;;;0.90;;
5277;SDS011;2662;51.194;6.614;2023-07-20T15:25:16;2.40;;;0.83;;
5277;SDS011;2662;51.194;6.614;2023-07-20T15:27:42;1.90;;;0.90;;
5277;SDS011;2662;51.194;6.614;2023-07-20T15:30:09;1.23;;;1.10;;